Terminal Aerodrome Forecast
Issued by NWS

Home | Current Version | Previous Version | Text Only | Print | Product List | Glossary On
Versions: 1 2 3 4 5 6 7 8 9 10 11 12 13 14 15 16 17 18 19 20
000
FTAK31 PAJN 231800 AAA
TAFAKT
TAF AMD
PAKT 231818Z 2318/2418 14008KT P6SM -SHRA BKN040 OVC050
      TEMPO 2318/2321 2SM SHRA BR SCT015 BKN025 OVC040
     FM232100 14008KT P6SM VCSH BKN070
     FM240600 15005KT P6SM -SHRA OVC050
      AMD LTD TO CLD VIS AND WIND 2406/2415=

USA.gov is the U.S. government's official web portal to all federal, state and local government web resources and services.